createdAt,value
2018-10-17T00:02:27.452Z,101934.31
2018-10-17T00:05:51.996Z,101930.22
2018-10-17T00:08:20.332Z,101931.36
2018-10-17T00:10:48.696Z,101931.36
2018-10-17T00:13:17.745Z,101936.37
2018-10-17T00:15:46.180Z,101933.66
2018-10-17T00:18:14.530Z,101931.50
2018-10-17T00:20:42.857Z,101931.29
2018-10-17T00:23:11.274Z,101929.59
2018-10-17T00:25:42.700Z,101929.65
2018-10-17T00:28:11.071Z,101931.80
2018-10-17T00:30:40.460Z,101929.05
2018-10-17T00:33:08.824Z,101927.55
2018-10-17T00:35:37.192Z,101931.08
2018-10-17T00:38:06.764Z,101932.13
2018-10-17T00:40:35.201Z,101927.80
2018-10-17T00:43:03.545Z,101924.77
2018-10-17T00:45:31.873Z,101927.82
2018-10-17T00:48:00.259Z,101930.52
2018-10-17T00:50:28.587Z,101928.01
2018-10-17T00:52:57.053Z,101924.64
2018-10-17T00:55:25.307Z,101920.90
2018-10-17T00:57:53.653Z,101921.39
2018-10-17T01:00:22.213Z,101922.73
2018-10-17T01:02:50.574Z,101919.41
2018-10-17T01:05:19.911Z,101923.38
2018-10-17T01:07:48.313Z,101920.03
2018-10-17T01:10:16.708Z,101919.33
2018-10-17T01:12:45.100Z,101916.60
2018-10-17T01:15:13.516Z,101919.22
2018-10-17T01:17:42.363Z,101913.96
2018-10-17T01:20:10.825Z,101913.39
2018-10-17T01:22:39.445Z,101911.73
2018-10-17T01:25:07.982Z,101910.05
2018-10-17T01:27:36.321Z,101915.48
2018-10-17T01:30:05.310Z,101905.28
2018-10-17T01:32:33.701Z,101903.61
2018-10-17T01:35:02.147Z,101900.47
2018-10-17T01:37:31.769Z,101896.19
2018-10-17T01:40:00.126Z,101896.40
2018-10-17T01:42:28.501Z,101898.07
2018-10-17T01:44:57.053Z,101894.84
2018-10-17T01:47:25.418Z,101894.86
2018-10-17T01:49:54.858Z,101891.39
2018-10-17T01:52:23.253Z,101893.77
2018-10-17T01:54:51.621Z,101898.07
2018-10-17T01:57:19.972Z,101902.30
2018-10-17T01:59:49.365Z,101892.16
2018-10-17T02:02:17.752Z,101899.54
2018-10-17T02:04:46.113Z,101892.80
2018-10-17T02:07:14.707Z,101894.84
2018-10-17T02:09:43.001Z,101890.98
2018-10-17T02:12:11.407Z,101894.52
2018-10-17T02:14:39.822Z,101898.80
2018-10-17T02:17:08.275Z,101896.19
2018-10-17T02:19:36.624Z,101893.10
2018-10-17T02:22:05.096Z,101885.53
2018-10-17T02:24:33.485Z,101890.66
2018-10-17T02:27:02.888Z,101892.86
2018-10-17T02:29:31.264Z,101891.17
2018-10-17T02:31:59.626Z,101878.29
2018-10-17T02:34:27.957Z,101887.33
2018-10-17T02:36:56.308Z,101889.27
2018-10-17T02:39:24.696Z,101893.69
2018-10-17T02:41:53.028Z,101892.58
2018-10-17T02:44:22.476Z,101892.02
2018-10-17T02:46:50.821Z,101889.72
2018-10-17T02:49:20.239Z,101886.43
2018-10-17T02:51:48.601Z,101883.92
2018-10-17T02:54:16.961Z,101884.52
2018-10-17T02:56:45.286Z,101878.72
2018-10-17T02:59:13.687Z,101879.69
2018-10-17T03:01:42.092Z,101884.14
2018-10-17T03:04:14.905Z,101877.74
2018-10-17T03:06:43.250Z,101884.17
2018-10-17T03:09:11.636Z,101881.77
2018-10-17T03:11:39.989Z,101884.97
2018-10-17T03:14:08.367Z,101887.65
2018-10-17T03:16:36.813Z,101883.65
2018-10-17T03:19:05.508Z,101890.05
2018-10-17T03:21:33.842Z,101892.30
2018-10-17T03:24:02.180Z,101892.38
2018-10-17T03:26:30.504Z,101904.33
2018-10-17T03:28:58.913Z,101901.05
2018-10-17T03:31:27.376Z,101910.20
2018-10-17T03:33:55.592Z,101911.66
2018-10-17T03:36:23.930Z,101909.23
2018-10-17T03:38:54.398Z,101910.93
2018-10-17T03:41:23.856Z,101910.55
2018-10-17T03:43:52.250Z,101919.16
2018-10-17T03:46:20.623Z,101914.09
2018-10-17T03:48:49.012Z,101919.58
2018-10-17T03:51:18.586Z,101921.17
2018-10-17T03:53:46.939Z,101916.72
2018-10-17T03:56:15.285Z,101916.52
2018-10-17T03:58:43.636Z,101910.71
2018-10-17T04:01:12.059Z,101907.30
2018-10-17T04:03:40.326Z,101906.27
2018-10-17T04:06:08.693Z,101898.06
2018-10-17T04:08:37.064Z,101892.56
2018-10-17T04:11:05.833Z,101888.75
2018-10-17T04:13:34.110Z,101888.51
2018-10-17T04:16:02.479Z,101897.89
2018-10-17T04:18:31.932Z,101893.66
2018-10-17T04:21:00.305Z,101900.01
2018-10-17T04:23:28.690Z,101903.03
2018-10-17T04:25:57.082Z,101901.51
2018-10-17T04:28:31.424Z,101907.41
2018-10-17T04:30:59.790Z,101906.27
2018-10-17T04:33:28.157Z,101905.47
2018-10-17T04:35:56.525Z,101904.08
2018-10-17T04:38:24.901Z,101905.16
2018-10-17T04:40:53.292Z,101907.06
2018-10-17T04:43:24.488Z,101903.59
2018-10-17T04:45:55.120Z,101906.58
2018-10-17T04:48:24.529Z,101903.17
2018-10-17T04:50:54.134Z,101905.61
2018-10-17T04:53:22.505Z,101906.38
2018-10-17T04:59:02.240Z,101918.14
2018-10-17T05:01:30.502Z,101914.19
2018-10-17T05:03:58.877Z,101919.19
2018-10-17T05:06:27.237Z,101915.98
2018-10-17T05:08:55.625Z,101916.34
2018-10-17T05:12:49.501Z,101914.95
2018-10-17T05:15:17.896Z,101921.41
2018-10-17T05:17:46.223Z,101917.09
2018-10-17T05:20:14.561Z,101915.50
2018-10-17T05:22:42.896Z,101922.03
2018-10-17T05:25:11.240Z,101922.78
2018-10-17T05:27:39.548Z,101920.44
2018-10-17T05:30:08.024Z,101926.83
2018-10-17T05:32:36.348Z,101925.80
2018-10-17T05:35:05.175Z,101930.83
2018-10-17T05:37:33.586Z,101927.73
2018-10-17T05:40:01.857Z,101925.09
2018-10-17T05:42:30.245Z,101935.79
2018-10-17T05:44:58.646Z,101932.39
2018-10-17T05:47:27.000Z,101933.02
2018-10-17T05:49:55.348Z,101936.49
2018-10-17T05:52:23.700Z,101933.20
2018-10-17T05:54:52.071Z,101935.84
2018-10-17T05:57:20.445Z,101931.53
2018-10-17T05:59:48.819Z,101929.77
2018-10-17T06:02:22.461Z,101929.42
2018-10-17T06:04:51.013Z,101934.39
2018-10-17T06:07:19.375Z,101929.31
2018-10-17T06:09:47.864Z,101930.39
2018-10-17T06:12:17.439Z,101928.47
2018-10-17T06:14:45.768Z,101931.03
2018-10-17T06:17:17.501Z,101928.59
2018-10-17T06:19:46.985Z,101931.79
2018-10-17T06:22:15.367Z,101931.25
2018-10-17T06:24:43.732Z,101935.32
2018-10-17T06:27:12.248Z,101937.67
2018-10-17T06:29:40.765Z,101938.27
2018-10-17T06:32:09.160Z,101940.48
2018-10-17T06:34:37.897Z,101937.92
2018-10-17T06:37:07.657Z,101937.36
2018-10-17T06:39:36.724Z,101939.17
2018-10-17T06:42:05.696Z,101937.02
2018-10-17T06:44:34.042Z,101934.37
2018-10-17T06:47:02.437Z,101937.51
2018-10-17T06:49:30.771Z,101931.82
2018-10-17T06:51:59.137Z,101923.14
2018-10-17T06:54:27.727Z,101923.39
2018-10-17T06:56:56.041Z,101927.99
2018-10-17T06:59:24.419Z,101920.52
2018-10-17T07:01:53.223Z,101917.66
2018-10-17T07:04:21.602Z,101911.95
2018-10-17T07:06:50.085Z,101918.70
2018-10-17T07:09:18.452Z,101918.40
2018-10-17T07:11:46.852Z,101916.15
2018-10-17T07:14:15.197Z,101918.28
2018-10-17T07:16:43.636Z,101919.77
2018-10-17T07:19:13.189Z,101917.28
2018-10-17T07:21:41.445Z,101920.85
2018-10-17T07:24:10.809Z,101917.99
2018-10-17T07:26:39.184Z,101915.84
2018-10-17T07:29:07.642Z,101915.49
2018-10-17T07:31:36.998Z,101914.77
2018-10-17T07:34:05.407Z,101915.53
2018-10-17T07:36:33.859Z,101921.56
2018-10-17T07:39:03.725Z,101923.28
2018-10-17T07:41:32.130Z,101924.70
2018-10-17T07:44:00.484Z,101919.58
2018-10-17T07:46:29.460Z,101917.60
2018-10-17T07:48:58.921Z,101922.13
2018-10-17T07:51:28.309Z,101916.92
2018-10-17T07:53:57.775Z,101924.28
2018-10-17T07:56:26.161Z,101931.39
2018-10-17T07:58:56.540Z,101936.45
2018-10-17T08:01:25.905Z,101937.19
2018-10-17T08:03:58.624Z,101941.48
2018-10-17T08:06:27.437Z,101942.17
2018-10-17T08:08:56.781Z,101942.08
2018-10-17T08:11:26.194Z,101937.31
2018-10-17T08:13:54.577Z,101938.64
2018-10-17T08:16:22.921Z,101940.34
2018-10-17T08:18:51.283Z,101943.05
2018-10-17T08:21:21.030Z,101942.04
2018-10-17T08:23:49.399Z,101941.86
2018-10-17T08:26:17.754Z,101944.31
2018-10-17T08:28:47.195Z,101950.96
2018-10-17T08:31:15.569Z,101949.36
2018-10-17T08:33:43.932Z,101951.46
2018-10-17T08:36:12.631Z,101946.04
2018-10-17T08:38:40.685Z,101949.39
2018-10-17T08:41:09.144Z,101943.00
2018-10-17T08:43:39.313Z,101939.28
2018-10-17T08:46:07.708Z,101939.61
2018-10-17T08:48:38.125Z,101942.13
2018-10-17T08:51:06.535Z,101946.79
2018-10-17T08:53:34.877Z,101953.60
2018-10-17T08:56:03.254Z,101956.41
2018-10-17T08:58:31.609Z,101953.93
2018-10-17T09:00:59.981Z,101953.45
2018-10-17T09:03:28.328Z,101950.78
2018-10-17T09:05:57.719Z,101946.75
2018-10-17T09:08:26.114Z,101948.77
2018-10-17T09:10:54.474Z,101945.09
2018-10-17T09:13:22.851Z,101944.02
2018-10-17T09:15:52.273Z,101950.58
2018-10-17T09:18:20.657Z,101944.27
2018-10-17T09:20:49.288Z,101951.31
2018-10-17T09:23:17.293Z,101952.20
2018-10-17T09:25:45.777Z,101946.06
2018-10-17T09:28:15.108Z,101949.70
2018-10-17T09:30:43.537Z,101942.65
2018-10-17T09:33:11.976Z,101937.82
2018-10-17T09:35:40.313Z,101934.32
2018-10-17T09:38:08.691Z,101934.64
2018-10-17T09:40:37.005Z,101934.12
2018-10-17T09:43:05.621Z,101938.89
2018-10-17T09:45:33.967Z,101943.17
2018-10-17T09:48:02.375Z,101941.84
2018-10-17T09:50:30.736Z,101947.19
2018-10-17T09:52:59.169Z,101951.87
2018-10-17T09:55:27.517Z,101956.99
2018-10-17T09:57:55.917Z,101955.23
2018-10-17T10:00:29.543Z,101959.23
2018-10-17T10:02:59.605Z,101949.21
2018-10-17T10:05:27.982Z,101949.44
2018-10-17T10:07:56.352Z,101951.47
2018-10-17T10:10:24.689Z,101940.09
2018-10-17T10:12:53.034Z,101944.74
2018-10-17T10:15:21.523Z,101934.76
2018-10-17T10:17:49.829Z,101936.42
2018-10-17T10:20:18.197Z,101939.50
2018-10-17T10:24:12.291Z,101939.20
2018-10-17T10:26:40.638Z,101931.53
2018-10-17T10:29:09.090Z,101931.30
2018-10-17T10:31:37.477Z,101923.02
2018-10-17T10:34:06.061Z,101926.84
2018-10-17T10:36:34.393Z,101928.05
2018-10-17T10:39:02.888Z,101926.84
2018-10-17T10:41:32.297Z,101920.91
2018-10-17T10:44:00.807Z,101926.31
2018-10-17T10:46:30.198Z,101922.69
2018-10-17T10:48:58.727Z,101920.59
2018-10-17T10:51:27.259Z,101926.20
2018-10-17T10:53:55.710Z,101914.35
2018-10-17T10:56:24.093Z,101918.84
2018-10-17T10:58:52.710Z,101914.63
2018-10-17T11:01:21.397Z,101914.80
2018-10-17T11:03:49.734Z,101906.62
2018-10-17T11:06:18.198Z,101903.25
2018-10-17T11:08:46.809Z,101892.44
2018-10-17T11:11:15.329Z,101895.81
2018-10-17T11:13:44.868Z,101895.60
2018-10-17T11:16:13.229Z,101895.41
2018-10-17T11:18:41.667Z,101892.70
2018-10-17T11:21:10.054Z,101890.48
2018-10-17T11:23:38.524Z,101886.64
2018-10-17T11:26:07.081Z,101890.19
2018-10-17T11:28:35.449Z,101891.98
2018-10-17T11:31:03.823Z,101890.30
2018-10-17T11:33:32.193Z,101886.31
2018-10-17T11:36:00.553Z,101885.74
2018-10-17T11:38:28.897Z,101883.17
2018-10-17T11:40:57.288Z,101893.48
2018-10-17T11:43:25.645Z,101885.66
2018-10-17T11:45:53.996Z,101887.47
2018-10-17T11:48:22.364Z,101890.07
2018-10-17T11:50:50.720Z,101878.02
2018-10-17T11:53:19.093Z,101881.70
2018-10-17T11:55:47.458Z,101880.31
2018-10-17T11:58:15.821Z,101879.12
2018-10-17T12:00:44.165Z,101876.80
2018-10-17T12:03:12.640Z,101874.32
2018-10-17T12:05:41.279Z,101877.73
2018-10-17T12:08:09.331Z,101882.03
2018-10-17T12:10:37.698Z,101878.97
2018-10-17T12:13:09.102Z,101875.88
2018-10-17T12:15:42.046Z,101872.15
2018-10-17T12:18:10.720Z,101872.22
2018-10-17T12:20:38.972Z,101866.09
2018-10-17T12:23:07.356Z,101867.77
2018-10-17T12:25:35.716Z,101862.62
2018-10-17T12:28:04.214Z,101860.93
2018-10-17T12:30:32.493Z,101862.77
2018-10-17T12:33:00.884Z,101857.34
2018-10-17T12:35:29.268Z,101856.71
2018-10-17T12:37:57.600Z,101852.90
2018-10-17T12:40:26.081Z,101852.51
2018-10-17T12:50:02.468Z,101858.40
2018-10-17T12:52:31.376Z,101850.43
2018-10-17T12:54:59.655Z,101853.83
2018-10-17T12:57:28.212Z,101857.39
2018-10-17T12:59:57.780Z,101857.92
2018-10-17T13:02:26.128Z,101856.35
2018-10-17T13:04:54.518Z,101857.47
2018-10-17T13:07:23.000Z,101855.70
2018-10-17T13:09:51.349Z,101857.45
2018-10-17T13:12:19.752Z,101861.89
2018-10-17T13:14:48.203Z,101849.04
2018-10-17T13:17:16.599Z,101848.53
2018-10-17T13:19:45.188Z,101846.57
2018-10-17T13:22:13.504Z,101844.38
2018-10-17T13:24:41.994Z,101852.17
2018-10-17T13:27:11.312Z,101848.05
2018-10-17T13:29:39.645Z,101844.02
2018-10-17T13:32:07.995Z,101845.36
2018-10-17T13:34:36.647Z,101841.64
2018-10-17T13:37:05.394Z,101841.13
2018-10-17T13:39:33.695Z,101840.88
2018-10-17T13:42:02.197Z,101843.91
2018-10-17T13:44:30.453Z,101840.88
2018-10-17T13:46:58.925Z,101835.51
2018-10-17T13:49:27.414Z,101840.21
2018-10-17T13:51:55.760Z,101838.30
2018-10-17T13:54:24.084Z,101836.35
2018-10-17T13:56:52.432Z,101834.53
2018-10-17T13:59:21.052Z,101837.61
2018-10-17T14:01:51.409Z,101835.09
2018-10-17T14:04:19.809Z,101837.41
2018-10-17T14:06:48.140Z,101836.80
2018-10-17T14:09:16.543Z,101836.64
2018-10-17T14:11:44.861Z,101840.56
2018-10-17T14:14:13.202Z,101835.07
2018-10-17T14:16:41.549Z,101840.11
2018-10-17T14:19:09.930Z,101832.11
2018-10-17T14:21:39.318Z,101834.89
2018-10-17T14:24:07.723Z,101832.17
2018-10-17T14:26:36.070Z,101838.97
2018-10-17T14:29:04.454Z,101840.66
2018-10-17T14:31:32.841Z,101837.63
2018-10-17T14:34:01.218Z,101833.44
2018-10-17T14:36:29.694Z,101837.46
2018-10-17T14:38:58.054Z,101841.59
2018-10-17T14:41:26.469Z,101847.27
2018-10-17T14:43:54.809Z,101850.17
2018-10-17T14:46:23.153Z,101850.99
2018-10-17T14:48:51.525Z,101849.85
2018-10-17T14:54:10.550Z,101853.16
2018-10-17T14:56:38.834Z,101855.02
2018-10-17T14:59:07.148Z,101847.42
2018-10-17T15:01:35.612Z,101845.38
2018-10-17T15:04:03.995Z,101845.19
2018-10-17T15:06:32.453Z,101845.73
2018-10-17T15:09:00.789Z,101847.92
2018-10-17T15:11:29.104Z,101846.28
2018-10-17T15:13:57.362Z,101842.97
2018-10-17T15:16:25.670Z,101844.56
2018-10-17T15:18:53.961Z,101840.99
2018-10-17T15:21:22.250Z,101846.08
2018-10-17T15:23:50.552Z,101848.86
2018-10-17T15:26:18.897Z,101845.75
2018-10-17T15:28:47.194Z,101845.35
2018-10-17T15:31:15.495Z,101846.46
2018-10-17T15:33:43.782Z,101853.91
2018-10-17T15:36:12.092Z,101850.91
2018-10-17T15:38:40.362Z,101849.80
2018-10-17T15:41:08.646Z,101849.22
2018-10-17T15:43:36.975Z,101855.00
2018-10-17T15:46:05.906Z,101854.03
2018-10-17T15:48:34.272Z,101853.74
2018-10-17T15:51:02.580Z,101855.80
2018-10-17T15:53:30.950Z,101860.97
2018-10-17T15:55:59.185Z,101859.81
2018-10-17T15:58:27.494Z,101863.50
2018-10-17T16:00:55.857Z,101861.14
2018-10-17T16:03:24.094Z,101864.51
2018-10-17T16:05:52.467Z,101871.13
2018-10-17T16:08:20.811Z,101869.31
2018-10-17T16:10:49.087Z,101882.17
2018-10-17T16:13:17.370Z,101873.20
2018-10-17T16:15:45.657Z,101873.36
2018-10-17T16:18:14.055Z,101879.53
2018-10-17T16:20:43.322Z,101877.37
2018-10-17T16:23:11.666Z,101882.86
2018-10-17T16:25:39.930Z,101883.52
2018-10-17T16:28:08.234Z,101881.20
2018-10-17T16:30:36.681Z,101881.87
2018-10-17T16:33:04.928Z,101883.22
2018-10-17T16:35:33.233Z,101878.16
2018-10-17T16:38:01.697Z,101879.18
2018-10-17T16:40:29.954Z,101883.22
2018-10-17T16:42:58.247Z,101891.80
2018-10-17T16:45:26.526Z,101895.77
2018-10-17T16:47:54.907Z,101893.44
2018-10-17T16:50:23.326Z,101897.72
2018-10-17T16:52:51.569Z,101904.31
2018-10-17T16:55:21.970Z,101907.30
2018-10-17T16:57:51.191Z,101907.70
2018-10-17T17:00:19.626Z,101914.59
2018-10-17T17:02:47.897Z,101920.66
2018-10-17T17:05:16.243Z,101919.02
2018-10-17T17:07:44.731Z,101920.72
2018-10-17T17:10:14.010Z,101923.99
2018-10-17T17:12:42.359Z,101929.67
2018-10-17T17:15:11.049Z,101931.59
2018-10-17T17:17:39.311Z,101934.09
2018-10-17T17:20:09.342Z,101942.66
2018-10-17T17:22:37.974Z,101947.52
2018-10-17T17:25:06.737Z,101947.18
2018-10-17T17:27:35.110Z,101948.08
2018-10-17T17:30:03.518Z,101946.77
2018-10-17T17:32:31.778Z,101945.87
2018-10-17T17:35:00.110Z,101952.56
2018-10-17T17:37:28.406Z,101956.04
2018-10-17T17:39:56.726Z,101951.87
2018-10-17T17:42:25.043Z,101949.66
2018-10-17T17:44:53.359Z,101956.24
2018-10-17T17:47:21.685Z,101955.20
2018-10-17T17:49:49.995Z,101947.09
2018-10-17T17:52:18.342Z,101947.66
2018-10-17T17:54:46.736Z,101949.91
2018-10-17T17:57:15.078Z,101949.59
2018-10-17T17:59:43.386Z,101952.47
2018-10-17T18:02:11.682Z,101954.63
2018-10-17T18:04:39.990Z,101956.92
2018-10-17T18:07:08.318Z,101955.85
2018-10-17T18:09:36.623Z,101960.38
2018-10-17T18:12:05.338Z,101960.12
2018-10-17T18:14:33.642Z,101964.77
2018-10-17T18:17:01.998Z,101961.19
2018-10-17T18:19:30.302Z,101962.93
2018-10-17T18:21:58.626Z,101962.70
2018-10-17T18:24:26.913Z,101966.08
2018-10-17T18:26:55.250Z,101967.74
2018-10-17T18:29:23.545Z,101966.19
2018-10-17T18:31:51.847Z,101978.03
2018-10-17T18:34:20.326Z,101978.26
2018-10-17T18:36:49.598Z,101973.74
2018-10-17T18:39:17.902Z,101973.86
2018-10-17T18:41:46.218Z,101981.17
2018-10-17T18:44:14.550Z,101977.39
2018-10-17T18:46:42.883Z,101986.73
2018-10-17T18:49:11.197Z,101984.09
2018-10-17T18:51:41.586Z,101982.51
2018-10-17T18:54:10.802Z,101997.13
2018-10-17T18:56:40.199Z,102003.27
2018-10-17T18:59:08.502Z,101998.31
2018-10-17T19:01:36.824Z,102005.48
2018-10-17T19:04:05.606Z,102002.69
2018-10-17T19:06:33.898Z,102006.22
2018-10-17T19:09:02.267Z,102002.22
2018-10-17T19:11:30.546Z,102005.06
2018-10-17T19:13:59.014Z,102013.09
2018-10-17T19:16:28.298Z,102018.02
2018-10-17T19:18:56.583Z,102013.29
2018-10-17T19:21:25.923Z,102013.48
2018-10-17T19:23:54.223Z,102017.11
2018-10-17T19:26:22.530Z,102020.23
2018-10-17T19:28:50.963Z,102016.08
2018-10-17T19:31:19.269Z,102023.28
2018-10-17T19:33:47.598Z,102021.07
2018-10-17T19:36:15.941Z,102024.75
2018-10-17T19:38:44.234Z,102029.80
2018-10-17T19:41:12.588Z,102030.54
2018-10-17T19:43:40.882Z,102038.92
2018-10-17T19:46:10.217Z,102037.31
2018-10-17T19:48:38.631Z,102037.64
2018-10-17T19:51:07.023Z,102038.06
2018-10-17T19:53:35.238Z,102044.19
2018-10-17T19:56:03.640Z,102044.59
2018-10-17T19:58:32.002Z,102045.58
2018-10-17T20:01:00.290Z,102043.95
2018-10-17T20:03:29.634Z,102043.35
2018-10-17T20:05:57.910Z,102047.48
2018-10-17T20:08:26.221Z,102051.69
2018-10-17T20:10:54.542Z,102054.58
2018-10-17T20:13:22.846Z,102057.41
2018-10-17T20:15:51.210Z,102047.95
2018-10-17T20:18:19.546Z,102048.27
2018-10-17T20:20:48.934Z,102047.55
2018-10-17T20:23:19.263Z,102052.08
2018-10-17T20:25:47.614Z,102048.48
2018-10-17T20:28:15.938Z,102050.89
2018-10-17T20:30:44.284Z,102043.12
2018-10-17T20:33:12.651Z,102040.28
2018-10-17T20:35:40.918Z,102050.23
2018-10-17T20:38:09.200Z,102044.38
2018-10-17T20:40:37.613Z,102040.15
2018-10-17T20:43:05.935Z,102046.15
2018-10-17T20:45:34.245Z,102041.97
2018-10-17T20:48:02.638Z,102048.23
2018-10-17T20:50:30.913Z,102050.71
2018-10-17T20:52:59.198Z,102054.42
2018-10-17T20:55:27.515Z,102054.00
2018-10-17T20:57:55.855Z,102057.25
2018-10-17T21:00:24.113Z,102059.05
2018-10-17T21:02:52.397Z,102060.37
2018-10-17T21:05:20.705Z,102056.30
2018-10-17T21:07:49.006Z,102059.61
2018-10-17T21:10:17.278Z,102063.98
2018-10-17T21:12:47.648Z,102057.00
2018-10-17T21:15:17.038Z,102060.23
2018-10-17T21:17:45.386Z,102061.91
2018-10-17T21:20:13.779Z,102066.70
2018-10-17T21:22:42.059Z,102063.09
2018-10-17T21:25:10.355Z,102064.70
2018-10-17T21:27:38.722Z,102060.37
2018-10-17T21:30:08.251Z,102070.78
2018-10-17T21:32:36.578Z,102066.16
2018-10-17T21:35:06.538Z,102066.25
2018-10-17T21:37:35.246Z,102063.67
2018-10-17T21:40:03.717Z,102071.54
2018-10-17T21:42:32.083Z,102066.38
2018-10-17T21:45:00.474Z,102065.79
2018-10-17T21:47:28.886Z,102067.33
2018-10-17T21:49:57.143Z,102062.77
2018-10-17T21:52:25.565Z,102067.23
2018-10-17T21:54:53.933Z,102066.87
2018-10-17T21:57:22.226Z,102063.14
2018-10-17T21:59:50.558Z,102068.14
2018-10-17T22:02:18.890Z,102066.50
2018-10-17T22:04:47.184Z,102057.59
2018-10-17T22:07:15.522Z,102060.79
2018-10-17T22:09:43.851Z,102062.95
2018-10-17T22:12:12.110Z,102059.61
2018-10-17T22:14:40.570Z,102061.62
2018-10-17T22:17:08.853Z,102060.66
2018-10-17T22:19:38.120Z,102061.05
2018-10-17T22:22:07.070Z,102061.63
2018-10-17T22:24:35.366Z,102056.48
2018-10-17T22:27:03.881Z,102063.34
2018-10-17T22:29:32.200Z,102057.58
2018-10-17T22:32:00.512Z,102058.06
2018-10-17T22:34:28.819Z,102062.95
2018-10-17T22:36:57.099Z,102063.21
2018-10-17T22:39:26.089Z,102065.00
2018-10-17T22:41:54.434Z,102070.51
2018-10-17T22:44:23.950Z,102066.16
2018-10-17T22:46:52.245Z,102062.59
2018-10-17T22:49:20.594Z,102068.84
2018-10-17T22:51:49.944Z,102063.30
2018-10-17T22:54:18.252Z,102060.66
2018-10-17T22:56:46.538Z,102057.32
2018-10-17T22:59:14.830Z,102063.30
2018-10-17T23:01:43.145Z,102066.63
2018-10-17T23:04:12.457Z,102058.36
2018-10-17T23:06:40.748Z,102058.72
2018-10-17T23:09:13.552Z,102057.67
2018-10-17T23:11:42.527Z,102053.35
2018-10-17T23:14:11.212Z,102046.77
2018-10-17T23:16:40.701Z,102053.23
2018-10-17T23:19:10.011Z,102053.93
2018-10-17T23:21:38.298Z,102050.50
2018-10-17T23:24:06.661Z,102049.66
2018-10-17T23:26:36.051Z,102049.27
2018-10-17T23:29:04.368Z,102044.65
2018-10-17T23:31:32.657Z,102053.14
2018-10-17T23:34:00.966Z,102057.36
2018-10-17T23:36:29.261Z,102066.01
2018-10-17T23:38:57.562Z,102058.80
2018-10-17T23:41:25.932Z,102057.48
2018-10-17T23:43:54.293Z,102064.30
2018-10-17T23:46:22.654Z,102063.83
2018-10-17T23:48:50.964Z,102067.07
2018-10-17T23:51:19.241Z,102060.86
2018-10-17T23:53:47.555Z,102061.56
2018-10-17T23:56:16.038Z,102064.07
2018-10-17T23:58:44.349Z,102068.89
